createdAt,value
2023-01-12T00:00:44.728Z,98514.53
2023-01-12T00:01:47.439Z,98523.97
2023-01-12T00:02:49.270Z,98513.63
2023-01-12T00:03:52.836Z,98523.03
2023-01-12T00:04:56.049Z,98520.34
2023-01-12T00:05:58.687Z,98524.69
2023-01-12T00:07:02.676Z,98524.69
2023-01-12T00:08:05.358Z,98530.56
2023-01-12T00:09:08.542Z,98535.66
2023-01-12T00:10:11.890Z,98526.16
2023-01-12T00:11:15.127Z,98527.81
2023-01-12T00:12:18.117Z,98526.88
2023-01-12T00:13:19.872Z,98531.94
2023-01-12T00:14:22.678Z,98533.63
2023-01-12T00:15:56.352Z,98533.63
2023-01-12T00:17:00.547Z,98530.28
2023-01-12T00:18:02.394Z,98531.13
2023-01-12T00:19:10.718Z,98527.63
2023-01-12T00:20:13.470Z,98534.47
2023-01-12T00:21:15.920Z,98530.13
2023-01-12T00:22:19.239Z,98526.59
2023-01-12T00:23:22.094Z,98527.44
2023-01-12T00:24:27.080Z,98528.25
2023-01-12T00:25:28.874Z,98526.50
2023-01-12T00:26:31.904Z,98534.25
2023-01-12T00:27:35.170Z,98529.00
2023-01-12T00:28:37.340Z,98535.84
2023-01-12T00:29:40.163Z,98528.91
2023-01-12T00:30:42.793Z,98530.56
2023-01-12T00:31:45.895Z,98526.22
2023-01-12T00:32:51.472Z,98521.03
2023-01-12T00:33:53.372Z,98531.31
2023-01-12T00:34:56.150Z,98524.38
2023-01-12T00:36:02.267Z,98533.69
2023-01-12T00:37:06.303Z,98533.69
2023-01-12T00:38:08.134Z,98541.34
2023-01-12T00:39:11.211Z,98537.03
2023-01-12T00:40:13.199Z,98541.25
2023-01-12T00:41:36.791Z,98540.34
2023-01-12T00:42:57.152Z,98537.66
2023-01-12T00:44:18.287Z,98539.28
2023-01-12T00:45:23.008Z,98545.28
2023-01-12T00:46:30.746Z,98542.63
2023-01-12T00:47:33.742Z,98546.03
2023-01-12T00:48:37.246Z,98542.53
2023-01-12T00:49:41.111Z,98542.53
2023-01-12T00:50:46.343Z,98539.00
2023-01-12T00:51:48.133Z,98544.19
2023-01-12T00:52:50.904Z,98539.84
2023-01-12T00:53:52.727Z,98541.41
2023-01-12T00:54:55.592Z,98544.84
2023-01-12T00:56:01.152Z,98543.06
2023-01-12T00:57:04.833Z,98538.63
2023-01-12T00:58:06.659Z,98547.25
2023-01-12T00:59:09.464Z,98547.25
2023-01-12T01:00:13.345Z,98540.31
2023-01-12T01:01:15.188Z,98547.13
2023-01-12T01:02:18.182Z,98547.13
2023-01-12T01:03:20.218Z,98545.38
2023-01-12T01:04:24.917Z,98548.78
2023-01-12T01:05:26.711Z,98547.84
2023-01-12T01:06:29.625Z,98548.69
2023-01-12T01:07:31.411Z,98551.19
2023-01-12T01:08:37.186Z,98543.44
2023-01-12T01:09:39.023Z,98551.19
2023-01-12T01:10:41.747Z,98554.59
2023-01-12T01:11:43.560Z,98554.59
2023-01-12T01:12:46.405Z,98552.84
2023-01-12T01:13:49.132Z,98547.66
2023-01-12T01:14:53.609Z,98558.84
2023-01-12T01:15:55.877Z,98554.50
2023-01-12T01:16:58.718Z,98551.81
2023-01-12T01:18:00.577Z,98549.22
2023-01-12T01:19:04.678Z,98551.81
2023-01-12T01:20:09.268Z,98544.97
2023-01-12T01:21:12.819Z,98545.81
2023-01-12T01:22:14.880Z,98544.06
2023-01-12T01:23:17.729Z,98540.63
2023-01-12T01:24:19.657Z,98546.75
2023-01-12T01:25:22.618Z,98535.47
2023-01-12T01:26:24.504Z,98550.16
2023-01-12T01:27:27.229Z,98543.22
2023-01-12T01:28:29.375Z,98547.56
2023-01-12T01:29:32.198Z,98544.97
2023-01-12T01:30:34.438Z,98540.75
2023-01-12T01:31:38.127Z,98545.91
2023-01-12T01:32:39.992Z,98544.97
2023-01-12T01:33:43.249Z,98536.28
2023-01-12T01:34:46.401Z,98544.06
2023-01-12T01:35:50.718Z,98541.47
2023-01-12T01:36:52.520Z,98538.06
2023-01-12T01:37:55.386Z,98544.88
2023-01-12T01:38:57.325Z,98544.06
2023-01-12T01:40:00.053Z,98545.81
2023-01-12T01:41:02.223Z,98546.63
2023-01-12T01:42:05.031Z,98550.16
2023-01-12T01:43:09.109Z,98543.16
2023-01-12T01:44:45.750Z,98546.56
2023-01-12T01:45:54.090Z,98551.81
2023-01-12T01:47:00.194Z,98552.63
2023-01-12T01:48:02.487Z,98550.03
2023-01-12T01:49:13.701Z,98546.56
2023-01-12T01:50:19.970Z,98547.28
2023-01-12T01:51:23.218Z,98550.69
2023-01-12T01:52:29.593Z,98548.94
2023-01-12T01:53:34.359Z,98548.94
2023-01-12T01:54:40.512Z,98549.75
2023-01-12T01:55:48.331Z,98557.53
2023-01-12T01:56:52.318Z,98555.75
2023-01-12T01:57:57.084Z,98563.44
2023-01-12T01:59:02.169Z,98565.09
2023-01-12T02:00:06.507Z,98566.88
2023-01-12T02:01:09.643Z,98569.44
2023-01-12T02:02:12.183Z,98570.28
2023-01-12T02:03:17.016Z,98573.78
2023-01-12T02:04:18.927Z,98569.44
2023-01-12T02:05:25.026Z,98576.28
2023-01-12T02:06:29.076Z,98577.94
2023-01-12T02:07:31.882Z,98579.69
2023-01-12T02:08:38.798Z,98576.16
2023-01-12T02:09:42.128Z,98570.16
2023-01-12T02:10:44.012Z,98581.28
2023-01-12T02:12:05.167Z,98570.91
2023-01-12T02:13:36.783Z,98576.09
2023-01-12T02:14:57.725Z,98569.25
2023-01-12T02:16:21.498Z,98577.84
2023-01-12T02:17:35.022Z,98568.41
2023-01-12T02:18:41.987Z,98580.44
2023-01-12T02:20:17.871Z,98569.06
2023-01-12T02:21:47.171Z,98574.22
2023-01-12T02:23:22.103Z,98571.66
2023-01-12T02:24:48.873Z,98569.88
2023-01-12T02:26:06.394Z,98574.22
2023-01-12T02:27:29.885Z,98570.81
2023-01-12T02:28:55.308Z,98563.88
2023-01-12T02:30:41.380Z,98567.28
2023-01-12T02:31:49.008Z,98565.63
2023-01-12T02:32:56.485Z,98570.72
2023-01-12T02:34:09.209Z,98573.19
2023-01-12T02:35:17.823Z,98569.69
2023-01-12T02:36:25.655Z,98575.69
2023-01-12T02:37:34.086Z,98575.59
2023-01-12T02:38:38.291Z,98564.41
2023-01-12T02:39:45.058Z,98570.31
2023-01-12T02:40:54.639Z,98572.91
2023-01-12T02:42:23.068Z,98565.97
2023-01-12T02:43:29.781Z,98571.25
2023-01-12T02:44:38.953Z,98577.19
2023-01-12T02:45:45.848Z,98577.25
2023-01-12T02:46:51.142Z,98578.06
2023-01-12T02:47:57.769Z,98576.31
2023-01-12T02:49:01.945Z,98574.59
2023-01-12T02:50:08.816Z,98568.47
2023-01-12T02:51:14.327Z,98570.31
2023-01-12T02:52:18.746Z,98577.06
2023-01-12T02:53:24.763Z,98577.91
2023-01-12T02:54:29.079Z,98577.06
2023-01-12T02:55:31.367Z,98580.47
2023-01-12T02:56:35.619Z,98577.91
2023-01-12T02:57:37.974Z,98585.66
2023-01-12T02:58:43.942Z,98576.97
2023-01-12T02:59:46.956Z,98587.31
2023-01-12T03:00:52.128Z,98576.97
2023-01-12T03:01:59.282Z,98585.56
2023-01-12T03:03:02.147Z,98579.56
2023-01-12T03:04:06.063Z,98587.31
2023-01-12T03:05:09.962Z,98575.31
2023-01-12T03:06:39.864Z,98581.31
2023-01-12T03:07:46.869Z,98577.06
2023-01-12T03:08:50.836Z,98574.47
2023-01-12T03:09:55.206Z,98578.72
2023-01-12T03:11:12.043Z,98588.13
2023-01-12T03:12:15.398Z,98588.25
2023-01-12T03:13:19.222Z,98588.97
2023-01-12T03:14:23.372Z,98584.63
2023-01-12T03:15:28.761Z,98581.13
2023-01-12T03:16:34.663Z,98578.53
2023-01-12T03:17:40.353Z,98586.31
2023-01-12T03:18:47.148Z,98587.13
2023-01-12T03:19:50.412Z,98588.78
2023-01-12T03:20:56.057Z,98583.59
2023-01-12T03:22:00.552Z,98594.78
2023-01-12T03:23:07.513Z,98588.69
2023-01-12T03:24:13.191Z,98591.19
2023-01-12T03:25:17.195Z,98594.50
2023-01-12T03:26:23.957Z,98591.09
2023-01-12T03:27:28.922Z,98591.91
2023-01-12T03:28:35.157Z,98598.75
2023-01-12T03:29:39.934Z,98592.75
2023-01-12T03:30:45.298Z,98587.56
2023-01-12T03:31:47.325Z,98592.63
2023-01-12T03:32:51.928Z,98590.03
2023-01-12T03:33:54.826Z,98590.03
2023-01-12T03:34:57.655Z,98584.88
2023-01-12T03:36:06.311Z,98589.13
2023-01-12T03:37:12.982Z,98584.88
2023-01-12T03:38:20.495Z,98580.50
2023-01-12T03:39:26.929Z,98581.38
2023-01-12T03:40:30.610Z,98585.69
2023-01-12T03:41:40.745Z,98581.38
2023-01-12T03:42:48.144Z,98586.56
2023-01-12T03:43:52.115Z,98591.72
2023-01-12T03:44:59.633Z,98583.84
2023-01-12T03:46:08.062Z,98588.19
2023-01-12T03:47:13.774Z,98588.19
2023-01-12T03:48:22.372Z,98584.69
2023-01-12T03:49:28.018Z,98576.09
2023-01-12T03:50:35.883Z,98574.31
2023-01-12T03:51:40.959Z,98574.31
2023-01-12T03:52:44.723Z,98586.34
2023-01-12T03:53:49.242Z,98579.50
2023-01-12T03:54:53.718Z,98585.50
2023-01-12T03:55:58.172Z,98591.41
2023-01-12T03:57:01.829Z,98586.22
2023-01-12T03:58:04.188Z,98587.09
2023-01-12T03:59:07.033Z,98585.31
2023-01-12T04:00:12.044Z,98593.91
2023-01-12T04:01:17.712Z,98598.16
2023-01-12T04:02:19.583Z,98597.22
2023-01-12T04:03:24.547Z,98598.06
2023-01-12T04:04:26.508Z,98589.47
2023-01-12T04:05:29.577Z,98595.38
2023-01-12T04:06:31.376Z,98592.78
2023-01-12T04:07:34.213Z,98593.63
2023-01-12T04:08:36.247Z,98594.44
2023-01-12T04:09:39.093Z,98594.34
2023-01-12T04:10:41.128Z,98597.75
2023-01-12T04:12:01.574Z,98588.22
2023-01-12T04:13:04.483Z,98590.00
2023-01-12T04:14:06.471Z,98592.59
2023-01-12T04:15:09.815Z,98590.09
2023-01-12T04:16:11.873Z,98590.81
2023-01-12T04:17:15.707Z,98592.59
2023-01-12T04:18:17.729Z,98591.75
2023-01-12T04:19:21.810Z,98599.41
2023-01-12T04:20:24.795Z,98597.75
2023-01-12T04:21:45.307Z,98597.66
2023-01-12T04:22:47.700Z,98600.34
2023-01-12T04:23:49.516Z,98596.81
2023-01-12T04:24:52.678Z,98593.34
2023-01-12T04:25:54.556Z,98597.56
2023-01-12T04:26:57.774Z,98604.41
2023-01-12T04:28:01.539Z,98590.63
2023-01-12T04:29:03.430Z,98593.13
2023-01-12T04:30:07.233Z,98587.94
2023-01-12T04:31:09.421Z,98594.78
2023-01-12T04:32:12.614Z,98590.53
2023-01-12T04:33:14.529Z,98593.13
2023-01-12T04:34:17.300Z,98603.34
2023-01-12T04:35:20.544Z,98597.34
2023-01-12T04:36:23.366Z,98598.28
2023-01-12T04:37:25.352Z,98600.88
2023-01-12T04:38:28.074Z,98599.22
2023-01-12T04:39:30.285Z,98595.81
2023-01-12T04:40:33.057Z,98603.47
2023-01-12T04:41:34.808Z,98606.88
2023-01-12T04:42:55.345Z,98605.22
2023-01-12T04:43:58.156Z,98598.41
2023-01-12T04:44:59.906Z,98597.56
2023-01-12T04:46:06.422Z,98600.06
2023-01-12T04:47:08.213Z,98610.41
2023-01-12T04:48:13.163Z,98602.66
2023-01-12T04:49:15.083Z,98607.81
2023-01-12T04:50:17.917Z,98609.59
2023-01-12T04:51:22.128Z,98609.59
2023-01-12T04:52:24.345Z,98607.81
2023-01-12T04:53:27.459Z,98608.66
2023-01-12T04:54:29.362Z,98608.66
2023-01-12T04:55:32.245Z,98615.59
2023-01-12T04:56:34.141Z,98614.75
2023-01-12T04:57:36.912Z,98623.34
2023-01-12T04:58:38.912Z,98613.09
2023-01-12T04:59:41.679Z,98619.13
2023-01-12T05:00:43.595Z,98613.00
2023-01-12T05:01:46.605Z,98614.75
2023-01-12T05:02:48.728Z,98614.75
2023-01-12T05:03:51.594Z,98607.81
2023-01-12T05:04:53.472Z,98615.59
2023-01-12T05:05:56.251Z,98611.25
2023-01-12T05:06:59.416Z,98613.00
2023-01-12T05:08:21.324Z,98614.75
2023-01-12T05:09:41.791Z,98615.69
2023-01-12T05:10:44.543Z,98619.22
2023-01-12T05:11:46.356Z,98617.47
2023-01-12T05:12:49.071Z,98613.09
2023-01-12T05:13:50.915Z,98607.94
2023-01-12T05:14:53.938Z,98613.94
2023-01-12T05:15:55.700Z,98618.28
2023-01-12T05:16:59.505Z,98624.28
2023-01-12T05:18:01.270Z,98619.13
2023-01-12T05:19:04.027Z,98625.13
2023-01-12T05:20:07.394Z,98622.53
2023-01-12T05:21:10.134Z,98619.94
2023-01-12T05:22:13.296Z,98619.00
2023-01-12T05:23:16.097Z,98613.81
2023-01-12T05:24:17.914Z,98619.00
2023-01-12T05:25:20.687Z,98619.00
2023-01-12T05:26:22.488Z,98613.72
2023-01-12T05:27:25.244Z,98614.66
2023-01-12T05:28:27.539Z,98615.47
2023-01-12T05:29:30.364Z,98608.66
2023-01-12T05:30:32.335Z,98621.59
2023-01-12T05:31:35.389Z,98624.19
2023-01-12T05:32:38.134Z,98614.75
2023-01-12T05:33:42.267Z,98616.41
2023-01-12T05:34:44.303Z,98610.31
2023-01-12T05:35:47.336Z,98621.47
2023-01-12T05:36:49.338Z,98619.00
2023-01-12T05:37:55.683Z,98624.06
2023-01-12T05:38:57.603Z,98632.78
2023-01-12T05:40:00.375Z,98631.94
2023-01-12T05:41:03.696Z,98630.28
2023-01-12T05:42:24.334Z,98630.28
2023-01-12T05:43:44.603Z,98633.81
2023-01-12T05:44:47.567Z,98623.53
2023-01-12T05:45:49.358Z,98627.06
2023-01-12T05:46:52.261Z,98627.88
2023-01-12T05:47:57.907Z,98627.88
2023-01-12T05:49:00.670Z,98630.47
2023-01-12T05:50:02.489Z,98632.25
2023-01-12T05:51:08.737Z,98628.81
2023-01-12T05:52:11.929Z,98635.75
2023-01-12T05:53:16.046Z,98634.00
2023-01-12T05:54:17.920Z,98637.53
2023-01-12T05:55:20.721Z,98645.28
2023-01-12T05:56:25.731Z,98639.19
2023-01-12T05:57:30.513Z,98632.34
2023-01-12T05:58:32.306Z,98634.94
2023-01-12T05:59:35.043Z,98642.69
2023-01-12T06:00:36.883Z,98639.28
2023-01-12T06:01:40.401Z,98635.88
2023-01-12T06:02:42.254Z,98653.06
2023-01-12T06:03:45.083Z,98642.69
2023-01-12T06:04:46.988Z,98639.19
2023-01-12T06:05:54.039Z,98641.88
2023-01-12T06:06:55.937Z,98647.16
2023-01-12T06:07:59.120Z,98644.56
2023-01-12T06:09:02.436Z,98642.88
2023-01-12T06:10:06.733Z,98642.88
2023-01-12T06:11:29.196Z,98643.72
2023-01-12T06:12:49.170Z,98650.75
2023-01-12T06:13:58.111Z,98646.50
2023-01-12T06:14:59.983Z,98650.03
2023-01-12T06:16:05.133Z,98644.84
2023-01-12T06:17:07.053Z,98659.56
2023-01-12T06:18:09.827Z,98656.03
2023-01-12T06:19:12.781Z,98658.63
2023-01-12T06:20:17.210Z,98659.44
2023-01-12T06:21:19.163Z,98657.69
2023-01-12T06:22:21.971Z,98659.44
2023-01-12T06:23:35.633Z,98650.88
2023-01-12T06:24:39.989Z,98657.78
2023-01-12T06:25:41.782Z,98657.88
2023-01-12T06:26:45.242Z,98659.56
2023-01-12T06:27:47.144Z,98664.63
2023-01-12T06:28:49.898Z,98658.63
2023-01-12T06:29:52.020Z,98659.44
2023-01-12T06:30:58.382Z,98664.63
2023-01-12T06:32:01.138Z,98654.28
2023-01-12T06:33:03.380Z,98665.47
2023-01-12T06:34:07.839Z,98661.09
2023-01-12T06:35:18.698Z,98666.41
2023-01-12T06:36:22.103Z,98663.81
2023-01-12T06:37:23.929Z,98662.88
2023-01-12T06:38:28.765Z,98666.28
2023-01-12T06:39:30.717Z,98669.81
2023-01-12T06:40:34.896Z,98660.28
2023-01-12T06:41:55.042Z,98658.53
2023-01-12T06:42:58.193Z,98665.47
2023-01-12T06:44:00.105Z,98665.47
2023-01-12T06:45:03.994Z,98663.69
2023-01-12T06:46:06.273Z,98661.81
2023-01-12T06:47:09.005Z,98673.03
2023-01-12T06:48:11.844Z,98667.00
2023-01-12T06:49:13.805Z,98669.59
2023-01-12T06:50:17.216Z,98666.09
2023-01-12T06:51:19.376Z,98664.41
2023-01-12T06:52:24.344Z,98668.69
2023-01-12T06:53:26.116Z,98669.59
2023-01-12T06:54:28.827Z,98671.34
2023-01-12T06:55:31.092Z,98677.38
2023-01-12T06:56:35.544Z,98669.59
2023-01-12T06:57:37.330Z,98667.13
2023-01-12T06:58:40.181Z,98667.13
2023-01-12T06:59:42.190Z,98668.88
2023-01-12T07:00:45.525Z,98674.88
2023-01-12T07:01:47.685Z,98675.81
2023-01-12T07:02:51.659Z,98668.78
2023-01-12T07:03:53.555Z,98661.94
2023-01-12T07:04:56.343Z,98664.41
2023-01-12T07:05:58.618Z,98665.34
2023-01-12T07:07:01.515Z,98667.00
2023-01-12T07:08:03.481Z,98663.59
2023-01-12T07:09:06.360Z,98668.69
2023-01-12T07:10:10.527Z,98664.34
2023-01-12T07:11:14.868Z,98662.69
2023-01-12T07:12:19.294Z,98661.81
2023-01-12T07:13:21.913Z,98660.09
2023-01-12T07:14:24.675Z,98662.75
2023-01-12T07:15:26.470Z,98663.59
2023-01-12T07:16:29.612Z,98668.78
2023-01-12T07:17:32.539Z,98668.03
2023-01-12T07:18:34.327Z,98671.34
2023-01-12T07:19:37.032Z,98674.88
2023-01-12T07:20:38.907Z,98673.13
2023-01-12T07:21:41.667Z,98674.88
2023-01-12T07:22:44.409Z,98679.13
2023-01-12T07:23:46.212Z,98671.28
2023-01-12T07:24:48.994Z,98675.63
2023-01-12T07:25:50.772Z,98682.47
2023-01-12T07:26:53.855Z,98672.09
2023-01-12T07:27:58.277Z,98672.00
2023-01-12T07:29:02.118Z,98680.69
2023-01-12T07:30:04.860Z,98675.41
2023-01-12T07:31:09.190Z,98671.91
2023-01-12T07:32:11.076Z,98677.00
2023-01-12T07:33:16.649Z,98683.00
2023-01-12T07:34:20.511Z,98680.41
2023-01-12T07:35:25.017Z,98687.25
2023-01-12T07:36:27.872Z,98679.59
2023-01-12T07:37:29.635Z,98682.06
2023-01-12T07:38:32.517Z,98670.06
2023-01-12T07:39:34.724Z,98680.41
2023-01-12T07:40:37.874Z,98683.00
2023-01-12T07:41:58.203Z,98680.41
2023-01-12T07:43:03.732Z,98682.25
2023-01-12T07:44:05.703Z,98681.44
2023-01-12T07:45:09.275Z,98676.25
2023-01-12T07:46:11.126Z,98682.25
2023-01-12T07:47:13.846Z,98675.41
2023-01-12T07:48:16.710Z,98684.13
2023-01-12T07:49:18.901Z,98691.16
2023-01-12T07:50:22.103Z,98686.06
2023-01-12T07:51:24.092Z,98696.53
2023-01-12T07:52:45.566Z,98694.88
2023-01-12T07:53:48.036Z,98684.50
2023-01-12T07:54:51.102Z,98687.00
2023-01-12T07:55:52.894Z,98687.09
2023-01-12T07:56:55.698Z,98686.28
2023-01-12T07:57:58.425Z,98688.03
2023-01-12T07:59:02.630Z,98688.09
2023-01-12T08:00:05.265Z,98694.31
2023-01-12T08:01:08.027Z,98683.13
2023-01-12T08:02:13.926Z,98688.50
2023-01-12T08:03:17.108Z,98683.44
2023-01-12T08:04:19.994Z,98681.94
2023-01-12T08:05:23.964Z,98676.13
2023-01-12T08:06:25.874Z,98683.16
2023-01-12T08:07:28.748Z,98679.00
2023-01-12T08:08:30.652Z,98680.03
2023-01-12T08:09:33.487Z,98680.19
2023-01-12T08:10:35.694Z,98680.31
2023-01-12T08:11:38.546Z,98680.41
2023-01-12T08:12:41.675Z,98683.06
2023-01-12T08:13:44.529Z,98687.41
2023-01-12T08:14:48.034Z,98692.69
2023-01-12T08:15:52.431Z,98699.63
2023-01-12T08:16:56.412Z,98694.56
2023-01-12T08:18:03.347Z,98688.72
2023-01-12T08:19:11.157Z,98693.81
2023-01-12T08:20:16.424Z,98687.78
2023-01-12T08:21:21.264Z,98687.06
2023-01-12T08:22:26.745Z,98691.31
2023-01-12T08:23:31.666Z,98688.72
2023-01-12T08:24:37.784Z,98691.41
2023-01-12T08:25:44.777Z,98690.47
2023-01-12T08:26:49.286Z,98698.97
2023-01-12T08:27:53.337Z,98697.22
2023-01-12T08:28:58.903Z,98695.47
2023-01-12T08:30:04.380Z,98693.63
2023-01-12T08:31:09.350Z,98699.53
2023-01-12T08:32:14.208Z,98696.88
2023-01-12T08:33:17.258Z,98700.19
2023-01-12T08:34:20.028Z,98700.91
2023-01-12T08:35:24.149Z,98699.97
2023-01-12T08:36:26.581Z,98707.56
2023-01-12T08:37:30.314Z,98701.38
2023-01-12T08:38:51.881Z,98696.81
2023-01-12T08:39:54.053Z,98697.47
2023-01-12T08:41:14.427Z,98701.44
2023-01-12T08:42:17.337Z,98692.47
2023-01-12T08:43:39.623Z,98693.00
2023-01-12T08:44:42.693Z,98691.78
2023-01-12T08:45:45.837Z,98694.81
2023-01-12T08:46:51.786Z,98690.16
2023-01-12T08:47:54.555Z,98697.56
2023-01-12T08:48:56.474Z,98696.34
2023-01-12T08:50:00.293Z,98695.22
2023-01-12T08:51:02.355Z,98700.94
2023-01-12T08:52:05.371Z,98693.78
2023-01-12T08:53:07.796Z,98693.38
2023-01-12T08:54:11.867Z,98697.44
2023-01-12T08:55:14.792Z,98698.09
2023-01-12T08:56:17.182Z,98690.97
2023-01-12T08:57:20.024Z,98693.34
2023-01-12T08:58:21.868Z,98694.91
2023-01-12T08:59:25.724Z,98696.44
2023-01-12T09:00:27.775Z,98692.75
2023-01-12T09:01:32.209Z,98686.44
2023-01-12T09:02:34.275Z,98691.59
2023-01-12T09:03:37.190Z,98688.94
2023-01-12T09:04:40.692Z,98696.59
2023-01-12T09:05:44.240Z,98682.63
2023-01-12T09:06:48.419Z,98692.88
2023-01-12T09:07:50.234Z,98679.00
2023-01-12T09:08:54.817Z,98688.22
2023-01-12T09:09:57.704Z,98690.63
2023-01-12T09:11:02.288Z,98686.16
2023-01-12T09:12:05.744Z,98686.69
2023-01-12T09:13:10.032Z,98687.94
2023-01-12T09:14:14.187Z,98684.00
2023-01-12T09:15:17.224Z,98684.31
2023-01-12T09:16:21.203Z,98680.16
2023-01-12T09:17:26.177Z,98673.41
2023-01-12T09:18:28.019Z,98672.78
2023-01-12T09:19:30.824Z,98680.13
2023-01-12T09:20:34.178Z,98673.78
2023-01-12T09:21:40.129Z,98663.81
2023-01-12T09:22:41.966Z,98658.28
2023-01-12T09:23:45.412Z,98663.78
2023-01-12T09:24:48.339Z,98666.91
2023-01-12T09:25:50.149Z,98671.84
2023-01-12T09:26:52.887Z,98677.53
2023-01-12T09:27:54.720Z,98678.28
2023-01-12T09:28:59.140Z,98684.31
2023-01-12T09:30:01.978Z,98682.66
2023-01-12T09:31:05.754Z,98674.03
2023-01-12T09:32:08.713Z,98681.81
2023-01-12T09:33:12.551Z,98676.41
2023-01-12T09:34:15.693Z,98667.66
2023-01-12T09:35:19.824Z,98666.63
2023-01-12T09:36:24.063Z,98663.91
2023-01-12T09:37:27.014Z,98655.09
2023-01-12T09:38:28.908Z,98659.34
2023-01-12T09:39:31.639Z,98658.28
2023-01-12T09:40:35.529Z,98658.06
2023-01-12T09:41:57.269Z,98660.47
2023-01-12T09:43:17.465Z,98662.81
2023-01-12T09:44:41.304Z,98659.06
2023-01-12T09:46:02.013Z,98649.50
2023-01-12T09:47:07.995Z,98659.69
2023-01-12T09:48:13.813Z,98658.63
2023-01-12T09:49:18.174Z,98656.31
2023-01-12T09:50:23.769Z,98637.88
2023-01-12T09:51:29.169Z,98646.41
2023-01-12T09:52:34.426Z,98655.03
2023-01-12T09:53:39.646Z,98651.59
2023-01-12T09:54:41.716Z,98656.81
2023-01-12T09:55:52.994Z,98646.41
2023-01-12T09:57:01.205Z,98644.84
2023-01-12T09:58:21.742Z,98645.19
2023-01-12T09:59:38.607Z,98653.31
2023-01-12T10:00:41.473Z,98647.53
2023-01-12T10:01:43.731Z,98643.97
2023-01-12T10:02:48.675Z,98641.38
2023-01-12T10:03:53.627Z,98641.38
2023-01-12T10:04:57.862Z,98637.00
2023-01-12T10:06:01.446Z,98639.41
2023-01-12T10:07:04.455Z,98627.81
2023-01-12T10:08:13.227Z,98635.53
2023-01-12T10:09:18.276Z,98632.69
2023-01-12T10:10:20.524Z,98627.28
2023-01-12T10:11:27.970Z,98621.00
2023-01-12T10:12:35.403Z,98627.31
2023-01-12T10:14:10.123Z,98626.63
2023-01-12T10:15:30.144Z,98628.88
2023-01-12T10:16:38.700Z,98628.63
2023-01-12T10:17:51.672Z,98628.31
2023-01-12T10:19:00.293Z,98633.03
2023-01-12T10:20:09.741Z,98628.56
2023-01-12T10:21:12.688Z,98628.31
2023-01-12T10:22:36.851Z,98623.13
2023-01-12T10:23:39.727Z,98623.03
2023-01-12T10:24:42.916Z,98622.91
2023-01-12T10:25:48.502Z,98619.94
2023-01-12T10:26:54.138Z,98622.22
2023-01-12T10:27:58.294Z,98620.09
2023-01-12T10:29:02.680Z,98614.41
2023-01-12T10:30:12.520Z,98616.31
2023-01-12T10:31:17.917Z,98611.63
2023-01-12T10:32:23.253Z,98617.28
2023-01-12T10:33:29.135Z,98618.59
2023-01-12T10:34:50.162Z,98616.69
2023-01-12T10:35:55.546Z,98612.31
2023-01-12T10:37:08.849Z,98613.97
2023-01-12T10:38:20.196Z,98608.88
2023-01-12T10:39:42.709Z,98614.22
2023-01-12T10:41:03.901Z,98619.41
2023-01-12T10:42:31.854Z,98615.16
2023-01-12T10:43:35.748Z,98617.88
2023-01-12T10:44:37.610Z,98615.16
2023-01-12T10:45:42.609Z,98617.50
2023-01-12T10:47:08.936Z,98619.41
2023-01-12T10:48:20.612Z,98609.25
2023-01-12T10:49:25.057Z,98612.75
2023-01-12T10:50:29.877Z,98609.94
2023-01-12T10:51:35.941Z,98607.31
2023-01-12T10:52:41.323Z,98607.94
2023-01-12T10:53:46.704Z,98601.63
2023-01-12T10:54:50.335Z,98611.00
2023-01-12T10:55:52.532Z,98602.22
2023-01-12T10:56:58.567Z,98599.63
2023-01-12T10:58:00.841Z,98604.97
2023-01-12T10:59:05.789Z,98590.41
2023-01-12T11:00:19.900Z,98593.34
2023-01-12T11:01:23.459Z,98585.22
2023-01-12T11:02:26.617Z,98586.25
2023-01-12T11:03:32.262Z,98586.25
2023-01-12T11:04:39.181Z,98582.75
2023-01-12T11:05:44.716Z,98585.22
2023-01-12T11:06:57.723Z,98582.13
2023-01-12T11:07:59.767Z,98590.41
2023-01-12T11:09:19.097Z,98578.78
2023-01-12T11:10:28.159Z,98583.75
2023-01-12T11:11:32.811Z,98585.97
2023-01-12T11:12:37.530Z,98583.59
2023-01-12T11:13:40.252Z,98581.47
2023-01-12T11:14:43.673Z,98585.72
2023-01-12T11:15:54.735Z,98583.34
2023-01-12T11:17:05.451Z,98570.72
2023-01-12T11:18:30.193Z,98584.34
2023-01-12T11:19:36.699Z,98575.38
2023-01-12T11:20:43.412Z,98581.75
2023-01-12T11:21:50.116Z,98573.34
2023-01-12T11:22:55.347Z,98572.78
2023-01-12T11:24:00.857Z,98576.31
2023-01-12T11:25:06.684Z,98579.19
2023-01-12T11:26:16.161Z,98582.47
2023-01-12T11:27:21.544Z,98587.56
2023-01-12T11:28:29.210Z,98581.28
2023-01-12T11:29:37.189Z,98583.66
2023-01-12T11:30:44.621Z,98582.44
2023-01-12T11:31:48.594Z,98584.00
2023-01-12T11:32:56.484Z,98581.13
2023-01-12T11:34:01.898Z,98588.84
2023-01-12T11:35:07.820Z,98591.44
2023-01-12T11:36:16.062Z,98586.13
2023-01-12T11:37:18.530Z,98583.50
2023-01-12T11:38:24.332Z,98574.66
2023-01-12T11:39:28.948Z,98571.31
2023-01-12T11:40:33.792Z,98573.91
2023-01-12T11:41:39.918Z,98573.78
2023-01-12T11:43:00.672Z,98571.09
2023-01-12T11:44:07.259Z,98560.66
2023-01-12T11:45:14.198Z,98567.53
2023-01-12T11:46:23.492Z,98572.72
2023-01-12T11:47:30.180Z,98568.56
2023-01-12T11:48:36.523Z,98568.00
2023-01-12T11:49:43.450Z,98565.41
2023-01-12T11:50:47.777Z,98560.31
2023-01-12T11:51:56.015Z,98559.47
2023-01-12T11:52:58.930Z,98559.47
2023-01-12T11:54:01.877Z,98557.00
2023-01-12T11:55:04.100Z,98550.28
2023-01-12T11:56:15.164Z,98553.94
2023-01-12T11:57:27.407Z,98556.91
2023-01-12T11:58:33.456Z,98553.84
2023-01-12T11:59:41.761Z,98549.72
2023-01-12T12:00:52.547Z,98555.28
2023-01-12T12:02:00.914Z,98543.47
2023-01-12T12:03:20.577Z,98549.84
2023-01-12T12:04:35.987Z,98540.63
2023-01-12T12:05:44.337Z,98535.69
2023-01-12T12:06:59.157Z,98534.72
2023-01-12T12:08:13.475Z,98530.81
2023-01-12T12:09:26.507Z,98521.22
2023-01-12T12:10:34.778Z,98536.72
2023-01-12T12:11:42.475Z,98526.41
2023-01-12T12:12:52.445Z,98525.97
2023-01-12T12:14:02.904Z,98521.72
2023-01-12T12:15:21.747Z,98521.94
2023-01-12T12:16:30.447Z,98525.34
2023-01-12T12:17:41.901Z,98524.13
2023-01-12T12:18:54.866Z,98515.91
2023-01-12T12:20:05.520Z,98518.31
2023-01-12T12:21:15.267Z,98524.19
2023-01-12T12:22:27.650Z,98518.78
2023-01-12T12:23:32.521Z,98500.59
2023-01-12T12:24:56.636Z,98515.34
2023-01-12T12:26:06.951Z,98509.22
2023-01-12T12:27:16.582Z,98504.91
2023-01-12T12:28:47.605Z,98503.16
2023-01-12T12:30:08.408Z,98500.16
2023-01-12T12:31:29.595Z,98515.44
2023-01-12T12:32:55.670Z,98502.78
2023-01-12T12:34:08.571Z,98505.66
2023-01-12T12:35:24.132Z,98493.84
2023-01-12T12:36:30.132Z,98502.03
2023-01-12T12:37:46.216Z,98490.50
2023-01-12T12:39:13.590Z,98496.47
2023-01-12T12:40:26.083Z,98502.31
2023-01-12T12:41:54.646Z,98502.59
2023-01-12T12:43:22.489Z,98500.94
2023-01-12T12:44:54.443Z,98504.63
2023-01-12T12:46:05.131Z,98497.75
2023-01-12T12:47:21.139Z,98497.75
2023-01-12T12:48:28.989Z,98502.16
2023-01-12T12:49:32.732Z,98503.34
2023-01-12T12:50:39.705Z,98505.72
2023-01-12T12:51:43.040Z,98510.78
2023-01-12T12:52:50.940Z,98494.88
2023-01-12T12:53:54.506Z,98490.25
2023-01-12T12:54:58.195Z,98497.00
2023-01-12T12:56:04.780Z,98489.88
2023-01-12T12:57:07.595Z,98480.84